createdAt,value
2022-12-01T00:00:18.317Z,24.46
2022-12-01T00:05:25.558Z,24.50
2022-12-01T00:10:32.773Z,24.55
2022-12-01T00:15:39.949Z,24.53
2022-12-01T00:20:47.153Z,24.61
2022-12-01T00:25:54.448Z,24.57
2022-12-01T00:31:01.684Z,24.64
2022-12-01T00:36:08.915Z,24.71
2022-12-01T00:41:16.127Z,24.75
2022-12-01T00:46:23.358Z,24.81
2022-12-01T00:51:30.521Z,24.84
2022-12-01T00:56:37.735Z,24.88
2022-12-01T01:01:45.041Z,24.87
2022-12-01T01:06:52.098Z,24.89
2022-12-01T01:11:59.332Z,24.98
2022-12-01T01:17:06.676Z,24.92
2022-12-01T01:22:13.791Z,24.92
2022-12-01T01:27:21.062Z,24.85
2022-12-01T01:32:28.231Z,24.80
2022-12-01T01:37:35.432Z,24.75
2022-12-01T01:42:42.644Z,24.70
2022-12-01T01:47:49.790Z,24.61
2022-12-01T01:52:56.950Z,24.52
2022-12-01T01:58:04.215Z,24.40
2022-12-01T02:03:11.472Z,24.27
2022-12-01T02:08:18.669Z,24.12
2022-12-01T02:13:25.900Z,23.96
2022-12-01T02:18:33.053Z,23.81
2022-12-01T02:23:40.270Z,23.66
2022-12-01T02:28:47.503Z,23.55
2022-12-01T02:33:54.681Z,23.46
2022-12-01T02:39:01.882Z,23.32
2022-12-01T02:44:09.151Z,23.22
2022-12-01T02:49:16.303Z,23.09
2022-12-01T02:54:23.518Z,22.99
2022-12-01T02:59:30.769Z,22.89
2022-12-01T03:04:37.929Z,22.74
2022-12-01T03:09:45.151Z,22.58
2022-12-01T03:14:52.363Z,22.42
2022-12-01T03:19:59.532Z,22.27
2022-12-01T03:25:06.734Z,22.10
2022-12-01T03:30:13.887Z,21.91
2022-12-01T03:35:21.039Z,21.76
2022-12-01T03:40:28.240Z,21.54
2022-12-01T03:45:35.490Z,21.29
2022-12-01T03:50:42.637Z,21.02
2022-12-01T03:55:50.138Z,20.88
2022-12-01T04:00:57.395Z,20.70
2022-12-01T04:06:04.589Z,20.55
2022-12-01T04:11:11.804Z,20.44
2022-12-01T04:16:19.097Z,20.30
2022-12-01T04:21:26.205Z,20.19
2022-12-01T04:26:33.380Z,20.07
2022-12-01T04:31:40.677Z,19.95
2022-12-01T04:36:47.827Z,19.89
2022-12-01T04:41:55.073Z,19.75
2022-12-01T04:47:02.476Z,19.69
2022-12-01T04:52:09.585Z,19.64
2022-12-01T04:57:16.819Z,19.55
2022-12-01T05:02:24.108Z,19.48
2022-12-01T05:07:31.303Z,19.54
2022-12-01T05:12:38.444Z,19.59
2022-12-01T05:17:45.713Z,19.80
2022-12-01T05:23:06.801Z,19.98
2022-12-01T05:28:00.065Z,20.17
2022-12-01T05:33:07.279Z,20.24
2022-12-01T05:38:14.459Z,20.30
2022-12-01T05:43:28.326Z,20.34
2022-12-01T05:48:28.870Z,20.36
2022-12-01T05:53:36.075Z,20.36
2022-12-01T05:58:43.249Z,20.38
2022-12-01T06:03:51.088Z,20.38
2022-12-01T06:08:58.197Z,20.35
2022-12-01T06:14:05.408Z,20.33
2022-12-01T06:19:12.621Z,20.31
2022-12-01T06:24:19.823Z,20.29
2022-12-01T06:29:27.028Z,20.32
2022-12-01T06:34:34.255Z,20.33
2022-12-01T06:39:41.435Z,20.40
2022-12-01T06:44:48.687Z,20.53
2022-12-01T06:49:55.871Z,20.69
2022-12-01T06:55:03.047Z,20.84
2022-12-01T07:00:10.264Z,20.97
2022-12-01T07:05:17.486Z,21.11
2022-12-01T07:10:24.655Z,21.26
2022-12-01T07:15:31.855Z,21.36
2022-12-01T07:20:39.106Z,21.54
2022-12-01T07:25:46.264Z,21.70
2022-12-01T07:30:53.462Z,21.88
2022-12-01T07:36:00.597Z,22.02
2022-12-01T07:41:07.748Z,22.20
2022-12-01T07:46:21.825Z,22.30
2022-12-01T07:51:22.106Z,22.41
2022-12-01T07:56:29.294Z,22.54
2022-12-01T08:01:40.361Z,22.61
2022-12-01T08:06:44.498Z,22.73
2022-12-01T08:11:51.631Z,22.81
2022-12-01T08:16:58.795Z,22.89
2022-12-01T08:22:06.073Z,23.02
2022-12-01T08:27:13.282Z,23.12
2022-12-01T08:32:20.458Z,23.17
2022-12-01T08:37:27.718Z,23.22
2022-12-01T08:42:34.911Z,23.30
2022-12-01T08:47:42.159Z,23.35
2022-12-01T08:52:49.384Z,23.36
2022-12-01T08:57:56.573Z,23.30
2022-12-01T09:03:03.793Z,23.32
2022-12-01T09:08:11.087Z,23.48
2022-12-01T09:13:18.180Z,23.59
2022-12-01T09:18:25.431Z,23.65
2022-12-01T09:23:32.708Z,23.68
2022-12-01T09:28:39.910Z,23.70
2022-12-01T09:33:47.105Z,23.75
2022-12-01T09:38:54.346Z,23.75
2022-12-01T09:44:01.560Z,23.71
2022-12-01T09:49:08.798Z,23.67
2022-12-01T09:54:16.093Z,23.55
2022-12-01T09:59:23.203Z,23.52
2022-12-01T10:04:30.439Z,23.40
2022-12-01T10:09:37.685Z,23.35
2022-12-01T10:14:44.879Z,23.26
2022-12-01T10:19:52.245Z,23.14
2022-12-01T10:24:59.298Z,23.03
2022-12-01T10:30:06.469Z,22.89
2022-12-01T10:35:13.624Z,22.69
2022-12-01T10:40:20.805Z,22.62
2022-12-01T10:45:28.092Z,22.53
2022-12-01T10:50:35.116Z,22.42
2022-12-01T10:55:47.792Z,22.33
2022-12-01T11:01:04.894Z,22.24
2022-12-01T11:05:56.733Z,22.14
2022-12-01T11:11:03.947Z,22.05
2022-12-01T11:16:11.165Z,21.85
2022-12-01T11:21:18.330Z,21.73
2022-12-01T11:26:25.655Z,21.59
2022-12-01T11:31:32.912Z,20.72
2022-12-01T11:36:40.041Z,20.93
2022-12-01T11:41:47.292Z,20.98
2022-12-01T11:47:07.779Z,21.04
2022-12-01T11:52:01.648Z,21.11
2022-12-01T11:58:12.587Z,21.13
2022-12-01T12:02:16.219Z,21.17
2022-12-01T12:07:23.505Z,21.25
2022-12-01T12:12:30.674Z,21.31
2022-12-01T12:17:37.972Z,21.32
2022-12-01T12:22:45.321Z,21.32
2022-12-01T12:27:52.305Z,21.31
2022-12-01T12:32:59.472Z,21.31
2022-12-01T12:38:07.103Z,21.30
2022-12-01T12:43:14.373Z,21.28
2022-12-01T12:48:21.513Z,21.24
2022-12-01T12:53:28.811Z,21.22
2022-12-01T12:58:36.097Z,21.16
2022-12-01T13:03:43.240Z,21.10
2022-12-01T13:08:50.477Z,21.07
2022-12-01T13:13:57.758Z,21.01
2022-12-01T13:19:04.952Z,20.95
2022-12-01T13:24:12.121Z,20.90
2022-12-01T13:29:19.479Z,20.91
2022-12-01T13:34:26.554Z,20.90
2022-12-01T13:39:33.813Z,20.92
2022-12-01T13:44:41.114Z,20.92
2022-12-01T13:49:48.658Z,20.89
2022-12-01T13:54:55.498Z,20.91
2022-12-01T14:00:02.700Z,20.91
2022-12-01T14:05:09.828Z,20.87
2022-12-01T14:10:16.997Z,20.81
2022-12-01T14:15:24.286Z,20.76
2022-12-01T14:20:31.411Z,20.72
2022-12-01T14:25:38.604Z,20.68
2022-12-01T14:30:46.083Z,20.61
2022-12-01T14:35:53.180Z,20.53
2022-12-01T14:41:00.434Z,20.52
2022-12-01T14:46:07.658Z,20.49
2022-12-01T14:51:14.834Z,20.48
2022-12-01T14:56:22.108Z,20.51
2022-12-01T15:01:29.394Z,20.56
2022-12-01T15:06:36.559Z,20.61
2022-12-01T15:11:43.817Z,20.60
2022-12-01T15:16:51.057Z,20.61
2022-12-01T15:21:58.151Z,20.60
2022-12-01T15:27:05.353Z,20.59
2022-12-01T15:32:12.578Z,20.57
2022-12-01T15:37:19.757Z,20.55
2022-12-01T15:42:26.966Z,20.53
2022-12-01T15:47:34.228Z,20.50
2022-12-01T15:52:41.378Z,20.45
2022-12-01T15:57:48.609Z,20.40
2022-12-01T16:02:55.910Z,20.36
2022-12-01T16:08:13.068Z,20.28
2022-12-01T16:13:10.262Z,20.29
2022-12-01T16:18:17.545Z,20.26
2022-12-01T16:23:24.767Z,20.32
2022-12-01T16:28:32.216Z,20.41
2022-12-01T16:33:39.641Z,20.49
2022-12-01T16:38:46.842Z,20.52
2022-12-01T16:44:12.843Z,20.52
2022-12-01T16:49:01.576Z,20.51
2022-12-01T16:54:10.083Z,20.50
2022-12-01T16:59:17.449Z,20.47
2022-12-01T17:04:26.055Z,20.47
2022-12-01T17:09:33.416Z,20.52
2022-12-01T17:14:40.668Z,20.59
2022-12-01T17:19:48.181Z,20.66
2022-12-01T17:24:55.532Z,20.84
2022-12-01T17:30:02.833Z,21.03
2022-12-01T17:35:09.945Z,21.24
2022-12-01T17:40:17.082Z,21.42
2022-12-01T17:45:24.588Z,21.60
2022-12-01T17:50:31.951Z,21.74
2022-12-01T17:55:39.411Z,21.88
2022-12-01T18:00:48.044Z,22.04
2022-12-01T18:05:55.683Z,22.16
2022-12-01T18:11:03.020Z,22.25
2022-12-01T18:16:10.354Z,22.36
2022-12-01T18:21:17.755Z,22.45
2022-12-01T18:26:25.199Z,22.56
2022-12-01T18:31:32.762Z,22.66
2022-12-01T18:36:40.350Z,22.78
2022-12-01T18:41:47.941Z,22.86
2022-12-01T18:46:55.507Z,22.91
2022-12-01T18:52:04.118Z,23.00
2022-12-01T18:57:11.702Z,23.12
2022-12-01T19:02:19.417Z,23.18
2022-12-01T19:07:29.958Z,23.27
2022-12-01T19:12:40.631Z,23.32
2022-12-01T19:17:42.363Z,23.39
2022-12-01T19:22:50.004Z,23.47
2022-12-01T19:27:57.299Z,23.53
2022-12-01T19:33:04.796Z,23.57
2022-12-01T19:38:12.541Z,23.61
2022-12-01T19:43:20.128Z,23.64
2022-12-01T19:48:27.841Z,23.73
2022-12-01T19:53:35.585Z,23.74
2022-12-01T19:58:43.287Z,23.82
2022-12-01T20:03:50.893Z,23.88
2022-12-01T20:08:59.037Z,23.93
2022-12-01T20:14:07.247Z,24.01
2022-12-01T20:19:14.859Z,24.03
2022-12-01T20:24:22.604Z,24.11
2022-12-01T20:29:30.298Z,24.16
2022-12-01T20:34:37.908Z,24.20
2022-12-01T20:39:45.310Z,24.24
2022-12-01T20:44:53.106Z,24.27
2022-12-01T20:50:00.344Z,24.31
2022-12-01T20:55:07.993Z,24.35
2022-12-01T21:00:15.358Z,24.34
2022-12-01T21:05:22.883Z,24.31
2022-12-01T21:10:30.257Z,24.27
2022-12-01T21:15:37.493Z,24.23
2022-12-01T21:20:45.008Z,24.23
2022-12-01T21:25:52.329Z,24.22
2022-12-01T21:30:59.598Z,24.22
2022-12-01T21:36:06.732Z,24.24
2022-12-01T21:41:13.960Z,24.24
2022-12-01T21:46:21.225Z,24.25
2022-12-01T21:51:28.279Z,24.26
2022-12-01T21:56:35.489Z,24.24
2022-12-01T22:01:42.708Z,24.24
2022-12-01T22:06:49.847Z,24.29
2022-12-01T22:11:57.106Z,24.34
2022-12-01T22:17:04.325Z,24.40
2022-12-01T22:22:11.564Z,24.50
2022-12-01T22:27:18.791Z,24.53
2022-12-01T22:32:26.029Z,24.59
2022-12-01T22:37:33.221Z,24.62
2022-12-01T22:42:40.462Z,24.68
2022-12-01T22:47:47.692Z,24.70
2022-12-01T22:52:54.872Z,24.78
2022-12-01T22:58:02.116Z,24.79
2022-12-01T23:03:09.340Z,24.77
2022-12-01T23:08:16.592Z,24.78
2022-12-01T23:13:23.728Z,24.82
2022-12-01T23:18:30.937Z,24.80
2022-12-01T23:23:38.155Z,24.69
2022-12-01T23:28:45.374Z,24.70
2022-12-01T23:33:52.550Z,24.66
2022-12-01T23:38:59.769Z,24.74
2022-12-01T23:44:07.010Z,24.72
2022-12-01T23:49:14.198Z,24.78
2022-12-01T23:54:21.484Z,24.82
2022-12-01T23:59:28.694Z,24.92
